Terminal Aerodrome Forecast
Issued by NWS Caribou, ME

Home | Current Version | Previous Version | Text Only | Print | Product List | Glossary On
Versions: 1 2 3 4 5 6 7 8 9 10 11 12 13 14 15 16 17 18 19
000
FTUS41 KCAR 280800 AAB
TAFBGR
TAF AMD
KBGR 280827Z 2808/2906 17005KT 2SM BR OVC002
      TEMPO 2808/2812 1/2SM FG OVC001
     FM281200 15006KT 6SM BR OVC006
     FM281500 13007KT 4SM -SHRA BR OVC008
     FM282300 14008KT P6SM BKN012
     FM290200 15008KT P6SM BKN005=

USA.gov is the U.S. government's official web portal to all federal, state and local government web resources and services.